createdAt,value
2022-08-20T00:02:14.391Z,17.20
2022-08-20T00:04:42.521Z,17.20
2022-08-20T00:07:10.572Z,17.20
2022-08-20T00:09:38.835Z,17.10
2022-08-20T00:12:07.670Z,17.10
2022-08-20T00:14:36.829Z,17.20
2022-08-20T00:17:07.173Z,17.20
2022-08-20T00:19:35.364Z,17.20
2022-08-20T00:22:03.382Z,17.20
2022-08-20T00:24:31.437Z,17.20
2022-08-20T00:26:59.525Z,17.30
2022-08-20T00:29:27.571Z,17.30
2022-08-20T00:31:55.601Z,17.30
2022-08-20T00:34:25.101Z,17.30
2022-08-20T00:36:53.224Z,17.30
2022-08-20T00:39:21.262Z,17.30
2022-08-20T00:41:49.541Z,17.30
2022-08-20T00:44:19.829Z,17.20
2022-08-20T00:46:48.452Z,17.20
2022-08-20T00:49:19.003Z,17.30
2022-08-20T00:51:52.932Z,17.30
2022-08-20T00:54:24.951Z,17.40
2022-08-20T00:56:58.541Z,17.40
2022-08-20T00:59:30.778Z,17.50
2022-08-20T01:01:59.882Z,17.40
2022-08-20T01:04:31.357Z,17.50
2022-08-20T01:07:01.081Z,17.50
2022-08-20T01:09:49.784Z,17.50
2022-08-20T01:12:18.565Z,17.50
2022-08-20T01:14:48.396Z,17.50
2022-08-20T01:17:20.071Z,17.50
2022-08-20T01:19:52.780Z,17.50
2022-08-20T01:22:43.215Z,17.50
2022-08-20T01:25:17.992Z,17.50
2022-08-20T01:27:55.118Z,17.50
2022-08-20T01:30:27.670Z,17.50
2022-08-20T01:32:56.159Z,17.50
2022-08-20T01:35:25.940Z,17.40
2022-08-20T01:37:54.219Z,17.40
2022-08-20T01:40:48.675Z,17.40
2022-08-20T01:43:18.132Z,17.40
2022-08-20T01:45:46.493Z,17.40
2022-08-20T01:48:19.494Z,17.30
2022-08-20T01:50:55.363Z,17.30
2022-08-20T01:53:33.405Z,17.30
2022-08-20T01:56:02.512Z,17.30
2022-08-20T01:58:33.287Z,17.30
2022-08-20T02:01:01.346Z,17.30
2022-08-20T02:03:33.555Z,17.40
2022-08-20T02:06:05.382Z,17.40
2022-08-20T02:08:33.873Z,17.40
2022-08-20T02:11:02.301Z,17.40
2022-08-20T02:13:32.641Z,17.40
2022-08-20T02:16:00.873Z,17.40
2022-08-20T02:18:29.107Z,17.40
2022-08-20T02:20:57.107Z,17.40
2022-08-20T02:23:25.150Z,17.30
2022-08-20T02:25:53.233Z,17.40
2022-08-20T02:28:21.629Z,17.50
2022-08-20T02:30:55.317Z,17.40
2022-08-20T02:33:24.687Z,17.40
2022-08-20T02:35:56.479Z,17.40
2022-08-20T02:38:24.877Z,17.40
2022-08-20T02:40:53.194Z,17.50
2022-08-20T02:43:21.578Z,17.40
2022-08-20T02:45:51.514Z,17.50
2022-08-20T02:48:22.967Z,17.50
2022-08-20T02:50:53.579Z,17.50
2022-08-20T02:53:22.377Z,17.50
2022-08-20T02:55:50.727Z,17.50
2022-08-20T02:58:19.530Z,17.50
2022-08-20T03:00:47.695Z,17.50
2022-08-20T03:03:20.321Z,17.50
2022-08-20T03:05:48.247Z,17.50
2022-08-20T03:08:16.973Z,17.40
2022-08-20T03:10:48.011Z,17.40
2022-08-20T03:13:17.046Z,17.50
2022-08-20T03:15:48.004Z,17.40
2022-08-20T03:18:18.737Z,17.40
2022-08-20T03:20:47.577Z,17.40
2022-08-20T03:23:21.391Z,17.40
2022-08-20T03:25:50.047Z,17.50
2022-08-20T03:28:20.039Z,17.60
2022-08-20T03:30:48.417Z,17.50
2022-08-20T03:33:20.120Z,17.50
2022-08-20T03:35:48.874Z,17.50
2022-08-20T03:38:18.271Z,17.50
2022-08-20T03:40:57.823Z,17.50
2022-08-20T03:43:26.011Z,17.50
2022-08-20T03:45:54.073Z,17.50
2022-08-20T03:48:23.826Z,17.50
2022-08-20T03:50:53.010Z,17.50
2022-08-20T03:53:21.156Z,17.50
2022-08-20T03:55:53.714Z,17.50
2022-08-20T03:58:30.043Z,17.40
2022-08-20T04:01:05.405Z,17.40
2022-08-20T04:03:35.470Z,17.40
2022-08-20T04:06:03.906Z,17.40
2022-08-20T04:08:31.949Z,17.40
2022-08-20T04:11:00.382Z,17.40
2022-08-20T04:13:29.804Z,17.40
2022-08-20T04:15:59.035Z,17.30
2022-08-20T04:18:27.761Z,17.30
2022-08-20T04:20:57.435Z,17.30
2022-08-20T04:23:25.521Z,17.40
2022-08-20T04:25:56.526Z,17.30
2022-08-20T04:28:27.379Z,17.30
2022-08-20T04:30:56.529Z,17.30
2022-08-20T04:33:33.470Z,17.30
2022-08-20T04:36:06.526Z,17.30
2022-08-20T04:38:49.880Z,17.30
2022-08-20T04:41:22.825Z,17.30
2022-08-20T04:43:54.433Z,17.30
2022-08-20T04:46:25.497Z,17.30
2022-08-20T04:48:53.981Z,17.40
2022-08-20T04:51:23.610Z,17.40
2022-08-20T04:53:54.312Z,17.40
2022-08-20T04:56:24.303Z,17.40
2022-08-20T04:58:53.837Z,17.50
2022-08-20T05:01:23.753Z,17.40
2022-08-20T05:03:54.632Z,17.40
2022-08-20T05:06:25.973Z,17.40
2022-08-20T05:08:54.432Z,17.40
2022-08-20T05:11:33.992Z,17.50
2022-08-20T05:14:08.565Z,17.40
2022-08-20T05:16:39.080Z,17.40
2022-08-20T05:19:08.437Z,17.30
2022-08-20T05:21:38.098Z,17.40
2022-08-20T05:24:06.806Z,17.50
2022-08-20T05:26:34.825Z,17.50
2022-08-20T05:29:04.851Z,17.50
2022-08-20T05:31:33.813Z,17.50
2022-08-20T05:34:02.829Z,17.50
2022-08-20T05:36:30.970Z,17.50
2022-08-20T05:39:00.486Z,17.50
2022-08-20T05:41:30.428Z,17.50
2022-08-20T05:44:01.751Z,17.50
2022-08-20T05:46:31.135Z,17.50
2022-08-20T05:49:01.392Z,17.50
2022-08-20T05:51:30.535Z,17.50
2022-08-20T05:54:00.029Z,17.50
2022-08-20T05:56:30.260Z,17.50
2022-08-20T05:58:59.282Z,17.60
2022-08-20T06:01:27.482Z,17.60
2022-08-20T06:04:12.886Z,17.60
2022-08-20T06:06:44.538Z,17.60
2022-08-20T06:09:16.418Z,17.70
2022-08-20T06:11:59.265Z,17.70
2022-08-20T06:14:27.676Z,17.70
2022-08-20T06:16:57.805Z,17.70
2022-08-20T06:19:32.224Z,17.70
2022-08-20T06:22:01.008Z,17.80
2022-08-20T06:24:30.596Z,17.80
2022-08-20T06:26:59.484Z,17.80
2022-08-20T06:29:28.952Z,17.80
2022-08-20T06:31:57.322Z,17.90
2022-08-20T06:34:28.453Z,17.90
2022-08-20T06:37:00.692Z,18.00
2022-08-20T06:39:31.186Z,18.00
2022-08-20T06:41:59.622Z,18.10
2022-08-20T06:44:28.487Z,18.10
2022-08-20T06:47:01.100Z,18.10
2022-08-20T06:49:29.103Z,18.20
2022-08-20T06:52:04.691Z,18.20
2022-08-20T06:54:35.082Z,18.20
2022-08-20T06:57:04.599Z,18.30
2022-08-20T06:59:32.739Z,18.30
2022-08-20T07:02:00.815Z,18.40
2022-08-20T07:04:28.890Z,18.50
2022-08-20T07:06:58.451Z,18.40
2022-08-20T07:09:28.258Z,18.40
2022-08-20T07:11:57.714Z,18.40
2022-08-20T07:14:26.019Z,18.50
2022-08-20T07:16:54.009Z,18.50
2022-08-20T07:19:22.424Z,18.60
2022-08-20T07:21:50.708Z,18.60
2022-08-20T07:24:19.294Z,18.60
2022-08-20T07:26:47.443Z,18.70
2022-08-20T07:29:17.018Z,18.80
2022-08-20T07:32:06.841Z,18.80
2022-08-20T07:34:37.806Z,18.90
2022-08-20T07:37:11.848Z,19.00
2022-08-20T07:39:40.019Z,19.00
2022-08-20T07:42:08.653Z,19.10
2022-08-20T07:44:39.383Z,19.10
2022-08-20T07:47:07.868Z,19.10
2022-08-20T07:49:39.136Z,19.10
2022-08-20T07:52:08.193Z,19.10
2022-08-20T07:54:38.148Z,19.10
2022-08-20T07:57:06.544Z,19.10
2022-08-20T07:59:34.566Z,19.10
2022-08-20T08:02:04.126Z,19.20
2022-08-20T08:04:32.164Z,19.20
2022-08-20T08:07:00.904Z,19.20
2022-08-20T08:09:29.557Z,19.20
2022-08-20T08:11:59.174Z,19.20
2022-08-20T08:14:30.166Z,19.30
2022-08-20T08:17:03.129Z,19.30
2022-08-20T08:19:38.709Z,19.40
2022-08-20T08:22:12.170Z,19.40
2022-08-20T08:24:40.838Z,19.40
2022-08-20T08:27:09.237Z,19.40
2022-08-20T08:29:37.501Z,19.40
2022-08-20T08:32:06.818Z,19.50
2022-08-20T08:34:38.040Z,19.40
2022-08-20T08:37:06.646Z,19.40
2022-08-20T08:39:35.254Z,19.40
2022-08-20T08:42:05.155Z,19.40
2022-08-20T08:44:38.728Z,19.40
2022-08-20T08:47:18.567Z,19.40
2022-08-20T08:49:48.879Z,19.40
2022-08-20T08:52:22.240Z,19.40
2022-08-20T08:54:54.449Z,19.40
2022-08-20T08:57:23.393Z,19.40
2022-08-20T09:00:03.950Z,19.50
2022-08-20T09:02:35.287Z,19.50
2022-08-20T09:05:14.663Z,19.60
2022-08-20T09:07:54.266Z,19.60
2022-08-20T09:10:23.201Z,19.70
2022-08-20T09:12:52.334Z,19.80
2022-08-20T09:15:21.208Z,19.80
2022-08-20T09:17:49.263Z,19.80
2022-08-20T09:20:19.445Z,19.90
2022-08-20T09:22:47.815Z,20.00
2022-08-20T09:25:19.754Z,20.10
2022-08-20T09:27:47.884Z,20.20
2022-08-20T09:30:18.981Z,20.20
2022-08-20T09:32:48.552Z,20.30
2022-08-20T09:35:18.009Z,20.30
2022-08-20T09:37:46.951Z,20.30
2022-08-20T09:40:21.350Z,20.40
2022-08-20T09:42:50.504Z,20.50
2022-08-20T09:45:19.500Z,20.60
2022-08-20T09:48:01.918Z,20.80
2022-08-20T09:50:34.224Z,21.00
2022-08-20T09:53:04.336Z,21.30
2022-08-20T09:55:36.671Z,21.40
2022-08-20T09:58:09.121Z,21.60
2022-08-20T10:00:37.433Z,21.70
2022-08-20T10:03:05.565Z,21.80
2022-08-20T10:05:35.237Z,21.70
2022-08-20T10:08:06.804Z,21.50
2022-08-20T10:10:34.960Z,21.30
2022-08-20T10:13:03.076Z,21.30
2022-08-20T10:15:31.624Z,21.30
2022-08-20T10:17:59.853Z,21.40
2022-08-20T10:20:27.972Z,21.50
2022-08-20T10:22:57.593Z,21.50
2022-08-20T10:25:25.714Z,21.60
2022-08-20T10:27:53.909Z,21.70
2022-08-20T10:30:22.521Z,21.80
2022-08-20T10:32:50.623Z,21.80
2022-08-20T10:35:19.599Z,21.80
2022-08-20T10:37:47.759Z,21.70
2022-08-20T10:40:17.418Z,21.70
2022-08-20T10:42:45.961Z,21.60
2022-08-20T10:45:16.277Z,21.70
2022-08-20T10:47:44.842Z,21.70
2022-08-20T10:50:19.886Z,21.90
2022-08-20T10:52:48.096Z,22.00
2022-08-20T10:55:17.980Z,22.00
2022-08-20T10:57:46.710Z,21.80
2022-08-20T11:00:17.357Z,21.70
2022-08-20T11:02:45.500Z,21.70
2022-08-20T11:05:13.649Z,21.70
2022-08-20T11:07:49.808Z,21.90
2022-08-20T11:10:33.225Z,22.10
2022-08-20T11:13:01.765Z,22.10
2022-08-20T11:15:29.938Z,22.20
2022-08-20T11:17:58.342Z,22.40
2022-08-20T11:20:27.301Z,22.40
2022-08-20T11:22:55.893Z,22.50
2022-08-20T11:25:24.163Z,22.40
2022-08-20T11:27:54.755Z,22.40
2022-08-20T11:30:26.287Z,22.40
2022-08-20T11:32:54.891Z,22.40
2022-08-20T11:35:43.262Z,22.50
2022-08-20T11:38:11.921Z,22.60
2022-08-20T11:40:40.170Z,22.60
2022-08-20T11:43:17.971Z,22.60
2022-08-20T11:45:48.704Z,22.60
2022-08-20T11:48:18.382Z,22.60
2022-08-20T11:50:46.902Z,22.60
2022-08-20T11:53:15.280Z,22.70
2022-08-20T11:55:43.892Z,22.90
2022-08-20T11:58:13.465Z,23.10
2022-08-20T12:00:41.980Z,23.20
2022-08-20T12:03:11.878Z,23.30
2022-08-20T12:05:41.131Z,23.30
2022-08-20T12:08:09.645Z,23.30
2022-08-20T12:10:37.960Z,23.20
2022-08-20T12:13:06.247Z,22.70
2022-08-20T12:15:37.250Z,22.30
2022-08-20T12:18:08.022Z,22.00
2022-08-20T12:20:36.753Z,21.80
2022-08-20T12:23:05.489Z,21.80
2022-08-20T12:25:34.154Z,21.80
2022-08-20T12:28:02.950Z,21.80
2022-08-20T12:30:31.192Z,22.00
2022-08-20T12:33:01.096Z,22.30
2022-08-20T12:35:29.694Z,22.40
2022-08-20T12:37:59.947Z,22.60
2022-08-20T12:40:32.192Z,23.00
2022-08-20T12:43:01.597Z,23.20
2022-08-20T12:45:29.797Z,23.40
2022-08-20T12:48:04.443Z,23.50
2022-08-20T12:50:33.390Z,23.70
2022-08-20T12:53:01.739Z,23.80
2022-08-20T12:55:30.367Z,23.90
2022-08-20T12:58:00.381Z,23.80
2022-08-20T13:00:31.341Z,23.70
2022-08-20T13:03:03.910Z,23.50
2022-08-20T13:05:32.695Z,23.30
2022-08-20T13:08:01.180Z,23.20
2022-08-20T13:10:32.371Z,23.00
2022-08-20T13:13:02.152Z,23.00
2022-08-20T13:15:31.234Z,23.00
2022-08-20T13:18:01.972Z,23.00
2022-08-20T13:20:34.585Z,23.00
2022-08-20T13:23:03.913Z,23.00
2022-08-20T13:25:32.511Z,23.00
2022-08-20T13:28:04.001Z,23.10
2022-08-20T13:30:33.407Z,23.10
2022-08-20T13:33:01.674Z,22.90
2022-08-20T13:35:32.382Z,22.80
2022-08-20T13:38:00.560Z,22.60
2022-08-20T13:40:28.901Z,22.40
2022-08-20T13:42:57.214Z,22.00
2022-08-20T13:45:25.509Z,21.60
2022-08-20T13:47:55.981Z,21.40
2022-08-20T13:50:26.241Z,21.40
2022-08-20T13:52:56.487Z,21.50
2022-08-20T13:55:27.871Z,21.50
2022-08-20T13:57:58.011Z,21.50
2022-08-20T14:00:31.109Z,21.70
2022-08-20T14:03:00.423Z,21.80
2022-08-20T14:05:28.816Z,22.00
2022-08-20T14:08:05.614Z,22.10
2022-08-20T14:10:33.838Z,22.30
2022-08-20T14:13:03.354Z,22.40
2022-08-20T14:15:31.751Z,22.50
2022-08-20T14:17:59.863Z,22.50
2022-08-20T14:20:32.052Z,22.50
2022-08-20T14:23:02.745Z,22.40
2022-08-20T14:25:32.821Z,22.30
2022-08-20T14:28:10.738Z,22.10
2022-08-20T14:30:39.262Z,22.10
2022-08-20T14:33:07.507Z,22.10
2022-08-20T14:35:35.766Z,22.10
2022-08-20T14:38:06.460Z,22.20
2022-08-20T14:40:35.460Z,22.30
2022-08-20T14:43:05.023Z,22.40
2022-08-20T14:45:33.790Z,22.30
2022-08-20T14:48:01.882Z,22.10
2022-08-20T14:50:33.409Z,22.00
2022-08-20T14:53:02.451Z,21.80
2022-08-20T14:55:35.867Z,21.70
2022-08-20T14:58:08.487Z,21.60
2022-08-20T15:00:36.775Z,21.50
2022-08-20T15:03:05.012Z,21.40
2022-08-20T15:05:33.614Z,21.30
2022-08-20T15:08:01.806Z,21.30
2022-08-20T15:10:33.755Z,21.30
2022-08-20T15:13:02.659Z,21.30
2022-08-20T15:15:31.209Z,21.30
2022-08-20T15:18:01.135Z,21.30
2022-08-20T15:20:31.876Z,21.40
2022-08-20T15:23:00.463Z,21.30
2022-08-20T15:25:36.155Z,21.30
2022-08-20T15:28:09.339Z,21.20
2022-08-20T15:30:39.386Z,21.20
2022-08-20T15:33:07.638Z,21.20
2022-08-20T15:35:36.392Z,21.10
2022-08-20T15:38:04.568Z,21.00
2022-08-20T15:40:34.046Z,21.00
2022-08-20T15:43:04.505Z,21.00
2022-08-20T15:45:35.699Z,20.80
2022-08-20T15:48:11.592Z,20.70
2022-08-20T15:51:00.320Z,20.70
2022-08-20T15:53:34.376Z,20.70
2022-08-20T15:56:11.798Z,20.80
2022-08-20T15:58:52.553Z,20.80
2022-08-20T16:01:33.521Z,20.80
2022-08-20T16:04:24.203Z,20.80
2022-08-20T16:06:55.427Z,20.80
2022-08-20T16:09:41.665Z,20.80
2022-08-20T16:12:12.172Z,20.70
2022-08-20T16:14:43.103Z,20.70
2022-08-20T16:17:16.709Z,20.70
2022-08-20T16:19:57.315Z,20.80
2022-08-20T16:22:28.194Z,20.70
2022-08-20T16:24:56.945Z,20.70
2022-08-20T16:27:31.613Z,20.70
2022-08-20T16:30:05.365Z,20.70
2022-08-20T16:32:40.962Z,20.70
2022-08-20T16:35:29.575Z,20.70
2022-08-20T16:38:04.663Z,20.70
2022-08-20T16:40:37.403Z,20.70
2022-08-20T16:43:07.866Z,20.70
2022-08-20T16:45:50.117Z,20.70
2022-08-20T16:48:21.608Z,20.60
2022-08-20T16:50:58.603Z,20.50
2022-08-20T16:53:27.988Z,20.40
2022-08-20T16:55:57.733Z,20.30
2022-08-20T16:58:28.316Z,20.20
2022-08-20T17:01:10.914Z,20.20
2022-08-20T17:03:50.085Z,20.00
2022-08-20T17:06:28.091Z,20.00
2022-08-20T17:08:56.542Z,19.90
2022-08-20T17:11:30.964Z,19.80
2022-08-20T17:14:20.370Z,19.80
2022-08-20T17:16:52.207Z,19.80
2022-08-20T17:19:30.466Z,19.80
2022-08-20T17:22:10.390Z,19.90
2022-08-20T17:24:40.472Z,19.80
2022-08-20T17:27:13.662Z,19.90
2022-08-20T17:29:50.829Z,19.80
2022-08-20T17:32:28.954Z,19.80
2022-08-20T17:35:00.613Z,19.80
2022-08-20T17:37:32.728Z,19.70
2022-08-20T17:40:10.679Z,19.70
2022-08-20T17:42:48.808Z,19.70
2022-08-20T17:45:22.825Z,19.70
2022-08-20T17:47:51.818Z,19.70
2022-08-20T17:50:25.349Z,19.60
2022-08-20T17:52:57.594Z,19.60
2022-08-20T17:55:27.548Z,19.60
2022-08-20T17:58:01.030Z,19.60
2022-08-20T18:00:29.917Z,19.60
2022-08-20T18:03:01.005Z,19.50
2022-08-20T18:05:35.434Z,19.50
2022-08-20T18:08:20.333Z,19.60
2022-08-20T18:11:20.106Z,19.50
2022-08-20T18:14:20.644Z,19.50
2022-08-20T18:17:03.132Z,19.40
2022-08-20T18:20:04.832Z,19.40
2022-08-20T18:22:36.838Z,19.40
2022-08-20T18:25:17.280Z,19.40
2022-08-20T18:27:49.626Z,19.40
2022-08-20T18:30:19.995Z,19.30
2022-08-20T18:32:51.724Z,19.20
2022-08-20T18:35:23.310Z,19.20
2022-08-20T18:37:53.466Z,19.10
2022-08-20T18:40:29.248Z,19.10
2022-08-20T18:43:00.310Z,19.00
2022-08-20T18:45:30.712Z,19.10
2022-08-20T18:47:59.995Z,19.00
2022-08-20T18:50:32.945Z,18.90
2022-08-20T18:53:18.426Z,18.90
2022-08-20T18:55:49.322Z,18.90
2022-08-20T18:58:31.270Z,18.90
2022-08-20T19:01:01.313Z,19.00
2022-08-20T19:03:37.899Z,19.00
2022-08-20T19:06:18.127Z,19.00
2022-08-20T19:08:52.933Z,18.90
2022-08-20T19:12:00.299Z,18.80
2022-08-20T19:14:39.656Z,18.70
2022-08-20T19:17:12.705Z,18.50
2022-08-20T19:19:41.115Z,18.50
2022-08-20T19:22:12.740Z,18.30
2022-08-20T19:24:44.370Z,18.20
2022-08-20T19:27:13.652Z,18.30
2022-08-20T19:29:56.926Z,18.30
2022-08-20T19:32:28.082Z,18.30
2022-08-20T19:34:58.474Z,18.30
2022-08-20T19:37:38.569Z,18.30
2022-08-20T19:40:22.657Z,18.30
2022-08-20T19:42:54.179Z,18.30
2022-08-20T19:45:29.133Z,18.30
2022-08-20T19:48:12.040Z,18.40
2022-08-20T19:50:46.165Z,18.40
2022-08-20T19:53:30.413Z,18.40
2022-08-20T19:56:02.030Z,18.40
2022-08-20T19:58:32.436Z,18.50
2022-08-20T20:01:03.317Z,18.50
2022-08-20T20:03:33.520Z,18.50
2022-08-20T20:06:15.161Z,18.50
2022-08-20T20:08:51.154Z,18.60
2022-08-20T20:11:34.107Z,18.60
2022-08-20T20:14:05.345Z,18.70
2022-08-20T20:16:34.474Z,18.60
2022-08-20T20:19:25.298Z,18.60
2022-08-20T20:22:05.040Z,18.60
2022-08-20T20:24:42.975Z,18.50
2022-08-20T20:27:20.183Z,18.50
2022-08-20T20:29:50.045Z,18.40
2022-08-20T20:32:21.938Z,18.30
2022-08-20T20:34:56.087Z,18.40
2022-08-20T20:37:49.332Z,18.40
2022-08-20T20:40:25.825Z,18.40
2022-08-20T20:43:05.272Z,18.40
2022-08-20T20:45:37.643Z,18.40
2022-08-20T20:48:19.460Z,18.30
2022-08-20T20:50:48.823Z,18.20
2022-08-20T20:53:47.262Z,18.20
2022-08-20T20:56:28.154Z,18.20
2022-08-20T20:59:01.237Z,18.10
2022-08-20T21:01:49.444Z,18.10
2022-08-20T21:04:19.761Z,18.00
2022-08-20T21:06:48.398Z,18.00
2022-08-20T21:09:16.739Z,17.90
2022-08-20T21:11:44.856Z,17.80
2022-08-20T21:14:14.585Z,17.80
2022-08-20T21:16:44.627Z,17.70
2022-08-20T21:19:13.375Z,17.70
2022-08-20T21:21:42.429Z,17.70
2022-08-20T21:24:10.797Z,17.70
2022-08-20T21:26:39.509Z,17.80
2022-08-20T21:29:10.482Z,17.90
2022-08-20T21:31:43.638Z,17.90
2022-08-20T21:34:13.973Z,17.90
2022-08-20T21:36:42.515Z,17.80
2022-08-20T21:39:11.876Z,17.80
2022-08-20T21:41:42.774Z,17.70
2022-08-20T21:44:21.180Z,17.80
2022-08-20T21:46:52.209Z,17.80
2022-08-20T21:49:20.658Z,17.90
2022-08-20T21:51:49.470Z,17.90
2022-08-20T21:54:17.824Z,17.90
2022-08-20T21:56:49.461Z,17.90
2022-08-20T21:59:18.333Z,17.90
2022-08-20T22:01:46.778Z,17.90
2022-08-20T22:04:16.969Z,17.80
2022-08-20T22:06:45.494Z,17.80
2022-08-20T22:09:14.169Z,17.70
2022-08-20T22:11:42.559Z,17.70
2022-08-20T22:14:12.120Z,17.70
2022-08-20T22:16:42.937Z,17.70
2022-08-20T22:19:16.091Z,17.70
2022-08-20T22:21:46.098Z,17.70
2022-08-20T22:24:15.519Z,17.70
2022-08-20T22:26:44.489Z,17.60
2022-08-20T22:29:13.516Z,17.60
2022-08-20T22:31:43.761Z,17.60
2022-08-20T22:34:13.570Z,17.60
2022-08-20T22:36:43.055Z,17.60
2022-08-20T22:39:12.675Z,17.70
2022-08-20T22:41:40.932Z,17.60
2022-08-20T22:44:09.096Z,17.60
2022-08-20T22:46:43.673Z,17.70
2022-08-20T22:49:36.188Z,17.60
2022-08-20T22:52:04.854Z,17.60
2022-08-20T22:54:36.092Z,17.50
2022-08-20T22:57:08.795Z,17.60
2022-08-20T22:59:45.871Z,17.60
2022-08-20T23:02:20.031Z,17.60
2022-08-20T23:04:48.176Z,17.60
2022-08-20T23:07:20.481Z,17.60
2022-08-20T23:09:50.164Z,17.50
2022-08-20T23:12:18.393Z,17.50
2022-08-20T23:14:46.703Z,17.50
2022-08-20T23:17:19.201Z,17.50
2022-08-20T23:19:49.549Z,17.40
2022-08-20T23:22:19.334Z,17.30
2022-08-20T23:24:49.306Z,17.30
2022-08-20T23:27:20.680Z,17.20
2022-08-20T23:29:49.263Z,17.20
2022-08-20T23:32:17.801Z,17.20
2022-08-20T23:34:46.089Z,17.20
2022-08-20T23:37:14.890Z,17.10
2022-08-20T23:39:46.171Z,17.10
2022-08-20T23:42:16.964Z,17.10
2022-08-20T23:44:45.419Z,17.10
2022-08-20T23:47:19.391Z,17.10
2022-08-20T23:49:48.194Z,17.10
2022-08-20T23:52:16.430Z,17.10
2022-08-20T23:54:44.661Z,17.20
2022-08-20T23:57:13.053Z,17.10
2022-08-20T23:59:43.554Z,17.20
